Time;durP1;ratioP1;P1;durP2;ratioP2;P2;SDS_P1;SDS_P2;PMS_P1;PMS_P2;Temp;Humidity;BMP_temperature;BMP_pressure;BME280_temperature;BME280_humidity;BME280_pressure;Samples;Min_cycle;Max_cycle;Signal;HPM_P1;HPM_P2
2021/05/29 00:02:28;;;;;;;6.80;5.13;;;;;;;9.27;72.25;99744.50;515335;1093;116030;-59
2021/05/29 00:12:33;;;;;;;7.00;6.07;;;;;;;9.25;71.88;99747.22;515908;1093;116923;-60
2021/05/29 00:22:39;;;;;;;6.80;5.73;;;;;;;9.23;71.88;99749.92;515499;1098;115947;-60
2021/05/29 00:32:44;;;;;;;6.07;5.47;;;;;;;9.20;72.06;99749.24;516027;1098;115874;-59
2021/05/29 00:42:49;;;;;;;6.60;5.90;;;;;;;9.20;72.10;99754.48;517024;1093;116041;-59
2021/05/29 00:52:55;;;;;;;6.80;5.30;;;;;;;9.20;71.76;99744.00;515743;1092;116608;-58
2021/05/29 01:03:00;;;;;;;7.03;5.70;;;;;;;9.23;71.96;99743.81;515051;1098;116485;-58
2021/05/29 01:13:07;;;;;;;5.83;5.00;;;;;;;9.30;72.03;99747.80;515722;1093;116335;-59
2021/05/29 01:23:13;;;;;;;7.57;6.23;;;;;;;9.29;71.81;99750.48;515768;1098;116130;-59
2021/05/29 01:33:21;;;;;;;7.43;6.73;;;;;;;9.13;71.63;99743.50;515950;1098;116224;-59
2021/05/29 01:43:26;;;;;;;8.58;6.55;;;;;;;8.96;71.98;99737.44;516283;1098;116290;-58
2021/05/29 01:53:32;;;;;;;8.23;6.27;;;;;;;8.87;72.30;99735.31;514295;1093;116602;-58
2021/05/29 02:03:37;;;;;;;8.53;6.77;;;;;;;8.80;72.43;99747.90;516309;1093;115681;-60
2021/05/29 02:13:43;;;;;;;6.83;6.13;;;;;;;8.74;72.67;99739.53;515001;1098;116356;-59
2021/05/29 02:23:50;;;;;;;8.30;7.38;;;;;;;8.58;72.89;99752.59;515810;1092;115991;-59
2021/05/29 02:33:54;;;;;;;9.13;7.67;;;;;;;8.33;73.20;99757.31;515121;1093;115674;-61
2021/05/29 02:43:59;;;;;;;8.30;7.00;;;;;;;8.09;73.71;99755.03;514853;1092;115860;-59
2021/05/29 02:54:05;;;;;;;6.90;5.85;;;;;;;8.02;74.21;99768.51;514997;1098;177612;-59
2021/05/29 03:04:11;;;;;;;8.53;7.17;;;;;;;8.07;74.20;99777.81;515915;1098;116076;-60
2021/05/29 03:14:16;;;;;;;9.43;7.10;;;;;;;8.72;74.50;99768.41;515346;1098;115537;-59
2021/05/29 03:24:21;;;;;;;10.27;6.43;;;;;;;9.58;72.18;99772.45;515206;1098;116284;-59
2021/05/29 03:34:26;;;;;;;10.60;6.57;;;;;;;9.56;71.73;99774.30;515179;1098;117556;-59
2021/05/29 03:44:31;;;;;;;7.30;5.47;;;;;;;9.50;71.24;99778.11;514747;1098;116682;-58
2021/05/29 03:54:36;;;;;;;7.80;6.43;;;;;;;9.61;71.09;99787.14;515113;1098;116470;-59
2021/05/29 04:04:41;;;;;;;8.93;5.73;;;;;;;10.57;70.54;99783.36;515058;1098;115985;-60
2021/05/29 04:14:46;;;;;;;9.50;6.93;;;;;;;9.83;68.88;99788.54;514445;1093;116960;-59
2021/05/29 04:24:51;;;;;;;8.90;6.77;;;;;;;9.33;70.32;99801.81;516017;1098;115830;-58
2021/05/29 04:34:56;;;;;;;10.40;7.93;;;;;;;9.31;71.08;99798.44;515990;1092;115368;-59
2021/05/29 04:45:01;;;;;;;7.23;6.37;;;;;;;9.63;70.36;99808.88;514666;1093;116599;-59
2021/05/29 04:55:09;;;;;;;8.65;7.10;;;;;;;9.50;70.93;99804.33;515433;1098;116387;-59
2021/05/29 05:05:14;;;;;;;6.38;5.60;;;;;;;9.98;70.57;99800.75;515976;1092;116228;-59
2021/05/29 05:15:19;;;;;;;6.90;5.57;;;;;;;10.12;69.54;99804.38;515033;1092;115668;-60
2021/05/29 05:25:27;;;;;;;6.33;5.67;;;;;;;10.02;69.93;99810.16;515564;1098;116348;-60
2021/05/29 05:35:32;;;;;;;6.23;5.23;;;;;;;12.39;67.53;99798.92;515531;1098;116565;-59
2021/05/29 05:45:37;;;;;;;5.20;4.80;;;;;;;14.18;67.19;99802.03;515480;1093;115961;-58
2021/05/29 05:55:42;;;;;;;5.60;4.23;;;;;;;24.95;54.27;99777.05;515914;1098;116044;-58
2021/05/29 06:05:48;;;;;;;4.18;3.55;;;;;;;31.95;41.29;99777.36;515808;1098;117452;-59
2021/05/29 06:26:17;;;;;;;3.00;2.00;;;;;;;33.48;27.33;99770.95;516054;1093;116544;-59
2021/05/29 06:36:21;;;;;;;1.75;1.50;;;;;;;37.68;24.73;99765.42;516717;1098;116556;-59
2021/05/29 06:46:26;;;;;;;5.95;2.08;;;;;;;28.02;26.31;99771.19;516171;1093;116485;-59
2021/05/29 07:06:55;;;;;;;0.90;0.90;;;;;;;28.81;23.49;99776.60;515517;1098;117523;-58
2021/05/29 07:17:02;;;;;;;2.23;0.93;;;;;;;23.28;28.51;99779.62;515393;1092;116744;-59
2021/05/29 07:27:08;;;;;;;0.90;0.90;;;;;;;23.54;29.02;99786.47;515925;1098;116757;-58
2021/05/29 07:37:13;;;;;;;1.08;0.90;;;;;;;27.90;24.93;99774.52;516750;1098;116093;-59
2021/05/29 07:47:18;;;;;;;1.00;0.97;;;;;;;23.66;28.53;99782.36;516311;1098;117501;-58
2021/05/29 07:57:24;;;;;;;1.43;1.33;;;;;;;19.57;31.37;99791.91;514921;1092;115672;-60
2021/05/29 08:07:29;;;;;;;1.20;1.10;;;;;;;18.80;33.69;99792.19;515711;1098;117078;-59
2021/05/29 08:17:34;;;;;;;1.17;1.07;;;;;;;17.16;36.09;99800.05;515214;1098;116213;-59
2021/05/29 08:27:39;;;;;;;3.47;1.40;;;;;;;18.09;36.06;99797.04;507066;1098;10001771;-59
2021/05/29 08:37:45;;;;;;;1.50;1.40;;;;;;;16.39;38.34;99800.40;514625;1098;116799;-58
2021/05/29 08:47:51;;;;;;;2.13;1.20;;;;;;;16.70;39.01;99797.77;531338;1098;117922;-58
2021/05/29 08:57:56;;;;;;;5.23;1.93;;;;;;;16.89;38.89;99793.49;518213;1098;116261;-59
2021/05/29 09:08:09;;;;;;;1.03;0.93;;;;;;;17.20;38.38;99796.98;516156;1098;116200;-58
2021/05/29 09:18:36;;;;;;;1.20;1.10;;;;;;;16.44;38.92;99798.18;514357;1098;116423;-58
2021/05/29 09:28:42;;;;;;;1.23;1.13;;;;;;;16.76;38.77;99794.56;516523;1093;115545;-58
2021/05/29 09:38:53;;;;;;;1.03;0.97;;;;;;;16.18;39.78;99792.48;514726;1098;116650;-60
2021/05/29 09:49:00;;;;;;;0.90;0.90;;;;;;;16.49;38.63;99784.53;515386;1093;116264;-61
2021/05/29 09:59:08;;;;;;;1.40;1.27;;;;;;;16.73;38.88;99784.23;515204;1093;116336;-61
2021/05/29 10:09:14;;;;;;;0.58;0.53;;;;;;;17.71;37.43;99772.14;514594;1098;116088;-58
2021/05/29 10:19:23;;;;;;;0.93;0.80;;;;;;;17.57;37.19;99768.92;515395;1093;115543;-58
2021/05/29 10:29:28;;;;;;;1.87;0.67;;;;;;;17.19;37.05;99771.40;515088;1098;116297;-57
2021/05/29 10:39:45;;;;;;;2.50;0.90;;;;;;;16.81;37.84;99760.55;514967;1093;116391;-58
2021/05/29 10:50:01;;;;;;;0.50;0.50;;;;;;;17.30;37.47;99751.03;516119;1098;116526;-58
2021/05/29 11:00:08;;;;;;;0.63;0.63;;;;;;;17.00;38.30;99760.77;514640;1098;116769;-58
2021/05/29 11:10:29;;;;;;;3.80;1.63;;;;;;;17.60;38.47;99758.05;518474;1098;117015;-57
2021/05/29 11:21:10;;;;;;;1.03;0.50;;;;;;;17.43;36.85;99767.55;522065;1098;117459;-57
2021/05/29 11:31:15;;;;;;;0.90;0.50;;;;;;;17.57;37.23;99758.31;515271;1098;116515;-59
2021/05/29 11:41:21;;;;;;;2.40;0.70;;;;;;;17.42;36.96;99751.75;515660;1093;116927;-58
2021/05/29 11:51:27;;;;;;;1.23;0.50;;;;;;;17.31;36.91;99727.02;514800;1098;116391;-58
2021/05/29 12:01:34;;;;;;;0.47;0.40;;;;;;;16.75;37.20;99725.78;515100;1098;116477;-58
2021/05/29 12:11:41;;;;;;;1.35;1.25;;;;;;;16.67;37.40;99729.08;514402;1098;116883;-59
2021/05/29 12:21:51;;;;;;;2.03;1.90;;;;;;;16.79;37.42;99724.53;515458;1093;116517;-59
2021/05/29 12:31:58;;;;;;;1.40;1.30;;;;;;;16.98;37.44;99723.73;515142;1093;116964;-60
2021/05/29 12:42:04;;;;;;;2.20;1.33;;;;;;;17.27;36.89;99733.59;514656;1098;116780;-60
2021/05/29 12:52:22;;;;;;;3.57;1.13;;;;;;;16.45;42.29;99749.53;515016;1092;116761;-59
2021/05/29 13:02:40;;;;;;;4.40;2.35;;;;;;;16.51;42.99;99743.69;515498;1098;116104;-58
2021/05/29 13:13:01;;;;;;;1.67;1.03;;;;;;;16.59;43.30;99736.89;520786;1098;116513;-58
2021/05/29 13:23:08;;;;;;;1.07;0.67;;;;;;;16.73;43.50;99733.86;515440;1098;116323;-59
2021/05/29 13:33:15;;;;;;;5.40;0.80;;;;;;;16.69;42.13;99732.47;514614;1098;116464;-59
2021/05/29 13:43:21;;;;;;;1.23;0.60;;;;;;;15.88;42.73;99727.84;515901;1093;116237;-59
2021/05/29 13:53:25;;;;;;;3.20;1.87;;;;;;;16.03;42.85;99728.39;515537;1094;116325;-60
2021/05/29 14:03:30;;;;;;;0.40;0.40;;;;;;;16.24;42.82;99723.91;515986;1098;116119;-60
2021/05/29 14:13:35;;;;;;;0.83;0.83;;;;;;;16.22;42.88;99732.95;515609;1098;116549;-59
2021/05/29 14:23:41;;;;;;;2.80;0.90;;;;;;;15.83;43.32;99734.38;514577;1098;117238;-59
2021/05/29 14:33:46;;;;;;;2.83;1.13;;;;;;;15.92;43.78;99722.20;515999;1093;116625;-55
2021/05/29 14:43:52;;;;;;;1.83;1.23;;;;;;;16.49;42.97;99724.44;516337;1092;116255;-57
2021/05/29 14:54:00;;;;;;;2.77;1.23;;;;;;;16.30;42.67;99717.25;514642;1094;116134;-56
2021/05/29 15:04:06;;;;;;;;;;;;;;;15.88;43.35;99733.14;516066;1098;116422;-55
2021/05/29 15:14:11;;;;;;;1.43;1.33;;;;;;;14.54;46.06;99775.53;515663;1098;102849;-54
2021/05/29 15:24:18;;;;;;;1.53;1.30;;;;;;;13.65;49.08;99774.27;498292;1091;20001614;-52
2021/05/29 15:34:23;;;;;;;1.90;1.80;;;;;;;13.69;50.72;99769.61;515124;1098;116857;-50
2021/05/29 15:44:28;;;;;;;1.60;1.50;;;;;;;13.85;53.76;99779.86;515746;1098;117129;-52
2021/05/29 15:54:34;;;;;;;3.00;1.97;;;;;;;13.89;55.39;99786.58;514836;1098;118276;-53
2021/05/29 16:04:39;;;;;;;5.03;3.40;;;;;;;13.39;56.92;99786.69;514852;1098;116652;-55
2021/05/29 16:14:44;;;;;;;2.17;1.70;;;;;;;13.24;58.37;99778.95;514110;1093;116750;-53
2021/05/29 16:24:49;;;;;;;2.33;1.73;;;;;;;13.01;58.85;99784.08;515232;1098;116603;-54
2021/05/29 16:34:54;;;;;;;3.50;3.20;;;;;;;12.75;59.96;99796.45;514672;1098;116273;-53
2021/05/29 16:44:59;;;;;;;6.27;4.90;;;;;;;12.52;60.88;99784.90;514579;1098;116642;-55
2021/05/29 16:55:06;;;;;;;5.43;4.88;;;;;;;12.52;62.18;99785.73;515072;1093;117063;-55
2021/05/29 17:05:13;;;;;;;5.00;4.50;;;;;;;12.51;62.11;99785.85;516405;1093;116847;-56
2021/05/29 17:15:18;;;;;;;7.43;3.53;;;;;;;12.45;62.14;99793.21;515160;1098;116788;-54
2021/05/29 17:25:23;;;;;;;4.75;4.20;;;;;;;12.37;63.71;99792.92;515354;1098;115910;-54
2021/05/29 17:35:29;;;;;;;5.60;5.10;;;;;;;12.34;64.75;99806.27;516099;1098;116483;-54
2021/05/29 17:45:34;;;;;;;5.33;4.90;;;;;;;12.22;65.28;99799.20;515939;1098;116768;-54
2021/05/29 17:55:40;;;;;;;7.07;5.87;;;;;;;12.04;65.49;99797.71;515526;1092;116897;-53
2021/05/29 18:05:45;;;;;;;10.27;7.93;;;;;;;11.97;66.20;99790.30;515539;1093;116254;-58
2021/05/29 18:15:51;;;;;;;8.70;7.75;;;;;;;11.75;67.34;99792.58;516308;1098;117295;-59
2021/05/29 18:25:55;;;;;;;5.80;5.20;;;;;;;11.56;67.68;99790.31;523739;1098;117415;-58
2021/05/29 18:36:03;;;;;;;5.50;4.93;;;;;;;11.49;68.51;99795.13;525102;1097;116559;-59
2021/05/29 18:46:08;;;;;;;6.88;6.18;;;;;;;11.43;68.98;99799.95;516248;1098;117347;-59
2021/05/29 18:56:16;;;;;;;6.13;5.53;;;;;;;11.37;69.43;99816.10;515271;1098;117180;-58
2021/05/29 19:06:28;;;;;;;8.85;8.10;;;;;;;11.26;70.09;99829.94;514674;1093;116702;-59
2021/05/29 19:16:34;;;;;;;9.67;7.70;;;;;;;11.20;70.81;99832.00;515379;1098;116958;-59
2021/05/29 20:29:07;;;;;;;10.93;7.53;;;;;;;10.38;70.52;99864.03;497868;1092;20001465;-60
2021/05/29 20:39:14;;;;;;;7.95;7.20;;;;;;;10.29;70.73;99872.44;515092;1098;118878;-57
2021/05/29 20:49:19;;;;;;;8.20;7.40;;;;;;;10.16;71.13;99872.33;515074;1098;116568;-60
2021/05/29 20:59:24;;;;;;;10.00;7.07;;;;;;;10.03;71.13;99869.56;515320;1098;116155;-58
2021/05/29 21:09:29;;;;;;;7.70;6.68;;;;;;;9.91;71.15;99863.22;514864;1098;117336;-59
2021/05/29 21:29:58;;;;;;;6.77;6.07;;;;;;;9.79;71.68;99880.52;515898;1094;117134;-60
2021/05/29 21:40:05;;;;;;;8.25;7.20;;;;;;;9.77;71.71;99879.76;515178;1098;116442;-61
2021/05/29 21:50:12;;;;;;;9.20;7.13;;;;;;;9.79;71.79;99879.66;515094;1098;117016;-61
2021/05/29 22:00:43;;;;;;;6.15;5.35;;;;;;;9.77;72.27;99877.14;514356;1098;116380;-61
2021/05/29 22:11:07;;;;;;;6.05;5.00;;;;;;;9.78;72.10;99883.21;514928;1098;116706;-60
2021/05/29 22:21:21;;;;;;;8.67;5.00;;;;;;;9.78;72.00;99891.08;515110;1098;116211;-60
2021/05/29 22:31:26;;;;;;;5.07;4.57;;;;;;;9.72;72.16;99889.64;515544;1094;115950;-60
2021/05/29 22:41:31;;;;;;;4.67;3.93;;;;;;;9.69;72.70;99900.31;514765;1094;116618;-60
2021/05/29 22:51:38;;;;;;;4.10;3.70;;;;;;;9.62;72.72;99894.56;515421;1093;174611;-61
2021/05/29 23:01:43;;;;;;;5.17;4.07;;;;;;;9.58;72.67;99900.06;515282;1098;116389;-61
2021/05/29 23:11:48;;;;;;;5.00;4.07;;;;;;;9.52;72.91;99907.34;515018;1093;116124;-60
2021/05/29 23:21:53;;;;;;;6.15;4.05;;;;;;;9.45;73.67;99913.84;515236;1093;116166;-59
2021/05/29 23:31:58;;;;;;;5.03;4.53;;;;;;;9.40;73.97;99910.60;515097;1098;116659;-60
2021/05/29 23:42:04;;;;;;;7.57;6.77;;;;;;;9.26;74.63;99908.75;514547;1093;116128;-60
2021/05/29 23:52:09;;;;;;;5.80;5.30;;;;;;;9.10;75.10;99906.92;515369;1093;115794;-60
